sensor_id;sensor_type;location;lat;lon;timestamp;P1;durP1;ratioP1;P2;durP2;ratioP2
3801;SDS011;1916;51.798;12.246;2022-12-18T00:01:01;89.53;;;33.10;;
3801;SDS011;1916;51.798;12.246;2022-12-18T00:03:07;107.77;;;33.07;;
3801;SDS011;1916;51.798;12.246;2022-12-18T00:05:10;114.95;;;33.08;;
3801;SDS011;1916;51.798;12.246;2022-12-18T00:07:12;102.80;;;33.63;;
3801;SDS011;1916;51.798;12.246;2022-12-18T00:09:14;126.87;;;35.40;;
3801;SDS011;1916;51.798;12.246;2022-12-18T00:11:17;92.50;;;27.27;;
3801;SDS011;1916;51.798;12.246;2022-12-18T00:13:20;84.43;;;30.80;;
3801;SDS011;1916;51.798;12.246;2022-12-18T00:15:23;103.30;;;31.47;;
3801;SDS011;1916;51.798;12.246;2022-12-18T00:17:25;104.90;;;31.77;;
3801;SDS011;1916;51.798;12.246;2022-12-18T00:19:27;90.27;;;29.07;;
3801;SDS011;1916;51.798;12.246;2022-12-18T00:21:29;92.17;;;32.13;;
3801;SDS011;1916;51.798;12.246;2022-12-18T00:23:33;86.57;;;27.43;;
3801;SDS011;1916;51.798;12.246;2022-12-18T00:25:36;102.50;;;29.47;;
3801;SDS011;1916;51.798;12.246;2022-12-18T00:27:39;89.10;;;31.10;;
3801;SDS011;1916;51.798;12.246;2022-12-18T00:29:41;82.03;;;29.70;;
3801;SDS011;1916;51.798;12.246;2022-12-18T00:31:43;87.40;;;28.53;;
3801;SDS011;1916;51.798;12.246;2022-12-18T00:33:46;80.63;;;28.93;;
3801;SDS011;1916;51.798;12.246;2022-12-18T00:35:50;77.20;;;30.80;;
3801;SDS011;1916;51.798;12.246;2022-12-18T00:37:52;78.37;;;30.30;;
3801;SDS011;1916;51.798;12.246;2022-12-18T00:39:54;77.07;;;26.80;;
3801;SDS011;1916;51.798;12.246;2022-12-18T00:41:56;71.63;;;29.23;;
3801;SDS011;1916;51.798;12.246;2022-12-18T00:44:17;76.40;;;29.10;;
3801;SDS011;1916;51.798;12.246;2022-12-18T00:46:19;87.05;;;29.33;;
3801;SDS011;1916;51.798;12.246;2022-12-18T00:48:22;93.82;;;28.70;;
3801;SDS011;1916;51.798;12.246;2022-12-18T00:50:24;98.47;;;32.23;;
3801;SDS011;1916;51.798;12.246;2022-12-18T00:52:27;94.37;;;30.97;;
3801;SDS011;1916;51.798;12.246;2022-12-18T00:54:29;107.33;;;29.40;;
3801;SDS011;1916;51.798;12.246;2022-12-18T00:56:31;95.23;;;27.60;;
3801;SDS011;1916;51.798;12.246;2022-12-18T00:58:33;97.20;;;29.07;;
3801;SDS011;1916;51.798;12.246;2022-12-18T01:00:37;77.40;;;28.27;;
3801;SDS011;1916;51.798;12.246;2022-12-18T01:02:40;86.83;;;29.07;;
3801;SDS011;1916;51.798;12.246;2022-12-18T01:04:42;91.50;;;30.37;;
3801;SDS011;1916;51.798;12.246;2022-12-18T01:06:44;91.43;;;30.67;;
3801;SDS011;1916;51.798;12.246;2022-12-18T01:08:46;91.33;;;30.00;;
3801;SDS011;1916;51.798;12.246;2022-12-18T01:10:48;105.13;;;34.53;;
3801;SDS011;1916;51.798;12.246;2022-12-18T01:12:51;91.53;;;30.73;;
3801;SDS011;1916;51.798;12.246;2022-12-18T01:14:53;75.70;;;28.87;;
3801;SDS011;1916;51.798;12.246;2022-12-18T01:16:55;76.50;;;27.23;;
3801;SDS011;1916;51.798;12.246;2022-12-18T01:18:57;82.97;;;28.80;;
3801;SDS011;1916;51.798;12.246;2022-12-18T01:21:05;89.80;;;28.67;;
3801;SDS011;1916;51.798;12.246;2022-12-18T01:23:11;91.47;;;28.35;;
3801;SDS011;1916;51.798;12.246;2022-12-18T01:25:13;69.67;;;24.77;;
3801;SDS011;1916;51.798;12.246;2022-12-18T01:27:15;106.80;;;30.03;;
3801;SDS011;1916;51.798;12.246;2022-12-18T01:29:17;77.00;;;27.50;;
3801;SDS011;1916;51.798;12.246;2022-12-18T01:31:20;82.40;;;27.02;;
3801;SDS011;1916;51.798;12.246;2022-12-18T01:33:22;89.80;;;28.87;;
3801;SDS011;1916;51.798;12.246;2022-12-18T01:35:24;81.53;;;28.17;;
3801;SDS011;1916;51.798;12.246;2022-12-18T01:37:27;80.63;;;26.53;;
3801;SDS011;1916;51.798;12.246;2022-12-18T01:39:29;72.77;;;27.60;;
3801;SDS011;1916;51.798;12.246;2022-12-18T01:41:34;92.93;;;30.37;;
3801;SDS011;1916;51.798;12.246;2022-12-18T01:43:56;91.27;;;28.87;;
3801;SDS011;1916;51.798;12.246;2022-12-18T01:45:59;79.10;;;31.30;;
3801;SDS011;1916;51.798;12.246;2022-12-18T01:48:03;83.63;;;31.27;;
3801;SDS011;1916;51.798;12.246;2022-12-18T01:50:11;74.30;;;27.87;;
3801;SDS011;1916;51.798;12.246;2022-12-18T01:52:16;96.77;;;28.37;;
3801;SDS011;1916;51.798;12.246;2022-12-18T01:54:19;72.50;;;28.57;;
3801;SDS011;1916;51.798;12.246;2022-12-18T01:56:21;84.73;;;28.10;;
3801;SDS011;1916;51.798;12.246;2022-12-18T01:58:37;88.87;;;29.60;;
3801;SDS011;1916;51.798;12.246;2022-12-18T02:00:48;77.57;;;26.53;;
3801;SDS011;1916;51.798;12.246;2022-12-18T02:02:50;82.27;;;25.47;;
3801;SDS011;1916;51.798;12.246;2022-12-18T02:04:53;84.63;;;28.00;;
3801;SDS011;1916;51.798;12.246;2022-12-18T02:09:17;78.40;;;28.40;;
3801;SDS011;1916;51.798;12.246;2022-12-18T02:18:07;77.70;;;28.40;;
3801;SDS011;1916;51.798;12.246;2022-12-18T02:24:42;82.53;;;25.67;;
3801;SDS011;1916;51.798;12.246;2022-12-18T02:26:55;79.37;;;26.50;;
3801;SDS011;1916;51.798;12.246;2022-12-18T02:29:05;77.03;;;27.90;;
3801;SDS011;1916;51.798;12.246;2022-12-18T02:31:13;89.90;;;28.47;;
3801;SDS011;1916;51.798;12.246;2022-12-18T02:33:20;71.60;;;27.25;;
3801;SDS011;1916;51.798;12.246;2022-12-18T02:35:24;85.50;;;28.98;;
3801;SDS011;1916;51.798;12.246;2022-12-18T02:37:35;84.77;;;27.43;;
3801;SDS011;1916;51.798;12.246;2022-12-18T02:39:40;82.07;;;28.90;;
3801;SDS011;1916;51.798;12.246;2022-12-18T02:41:46;85.53;;;28.77;;
3801;SDS011;1916;51.798;12.246;2022-12-18T02:43:49;69.03;;;24.83;;
3801;SDS011;1916;51.798;12.246;2022-12-18T02:45:58;77.73;;;28.73;;
3801;SDS011;1916;51.798;12.246;2022-12-18T02:48:04;90.97;;;31.07;;
3801;SDS011;1916;51.798;12.246;2022-12-18T02:50:22;92.00;;;29.40;;
3801;SDS011;1916;51.798;12.246;2022-12-18T02:54:45;79.73;;;28.17;;
3801;SDS011;1916;51.798;12.246;2022-12-18T02:56:57;70.40;;;28.27;;
3801;SDS011;1916;51.798;12.246;2022-12-18T03:01:24;74.53;;;27.47;;
3801;SDS011;1916;51.798;12.246;2022-12-18T03:05:56;70.60;;;27.33;;
3801;SDS011;1916;51.798;12.246;2022-12-18T03:08:46;60.90;;;25.70;;
3801;SDS011;1916;51.798;12.246;2022-12-18T03:10:45;80.70;;;25.63;;
3801;SDS011;1916;51.798;12.246;2022-12-18T03:13:02;59.73;;;24.30;;
3801;SDS011;1916;51.798;12.246;2022-12-18T03:15:11;79.57;;;28.37;;
3801;SDS011;1916;51.798;12.246;2022-12-18T03:17:20;82.27;;;28.90;;
3801;SDS011;1916;51.798;12.246;2022-12-18T03:19:23;79.97;;;27.05;;
3801;SDS011;1916;51.798;12.246;2022-12-18T03:21:40;79.07;;;30.98;;
3801;SDS011;1916;51.798;12.246;2022-12-18T03:23:47;71.27;;;25.57;;
3801;SDS011;1916;51.798;12.246;2022-12-18T03:25:51;91.37;;;31.63;;
3801;SDS011;1916;51.798;12.246;2022-12-18T03:27:58;77.27;;;30.00;;
3801;SDS011;1916;51.798;12.246;2022-12-18T03:30:07;83.37;;;29.10;;
3801;SDS011;1916;51.798;12.246;2022-12-18T03:32:14;90.65;;;29.15;;
3801;SDS011;1916;51.798;12.246;2022-12-18T03:34:23;90.97;;;33.10;;
3801;SDS011;1916;51.798;12.246;2022-12-18T03:36:28;85.30;;;28.17;;
3801;SDS011;1916;51.798;12.246;2022-12-18T03:38:30;95.80;;;32.40;;
3801;SDS011;1916;51.798;12.246;2022-12-18T03:40:48;90.68;;;31.92;;
3801;SDS011;1916;51.798;12.246;2022-12-18T03:43:16;83.93;;;30.30;;
3801;SDS011;1916;51.798;12.246;2022-12-18T03:45:28;97.75;;;30.55;;
3801;SDS011;1916;51.798;12.246;2022-12-18T03:47:43;74.50;;;26.67;;
3801;SDS011;1916;51.798;12.246;2022-12-18T03:52:24;98.85;;;32.65;;
3801;SDS011;1916;51.798;12.246;2022-12-18T03:54:29;92.67;;;34.93;;
3801;SDS011;1916;51.798;12.246;2022-12-18T03:56:48;83.37;;;30.63;;
3801;SDS011;1916;51.798;12.246;2022-12-18T03:58:55;97.80;;;32.35;;
3801;SDS011;1916;51.798;12.246;2022-12-18T04:01:01;90.80;;;30.87;;
3801;SDS011;1916;51.798;12.246;2022-12-18T04:03:06;95.70;;;35.30;;
3801;SDS011;1916;51.798;12.246;2022-12-18T04:05:16;88.45;;;34.92;;
3801;SDS011;1916;51.798;12.246;2022-12-18T04:07:19;90.70;;;30.83;;
3801;SDS011;1916;51.798;12.246;2022-12-18T04:09:22;84.30;;;34.22;;
3801;SDS011;1916;51.798;12.246;2022-12-18T04:11:25;82.53;;;31.43;;
3801;SDS011;1916;51.798;12.246;2022-12-18T04:13:28;79.90;;;31.07;;
3801;SDS011;1916;51.798;12.246;2022-12-18T04:15:34;77.63;;;30.37;;
3801;SDS011;1916;51.798;12.246;2022-12-18T04:17:39;68.33;;;30.50;;
3801;SDS011;1916;51.798;12.246;2022-12-18T04:19:49;82.53;;;32.65;;
3801;SDS011;1916;51.798;12.246;2022-12-18T04:21:52;74.77;;;29.53;;
3801;SDS011;1916;51.798;12.246;2022-12-18T04:23:54;91.40;;;32.60;;
3801;SDS011;1916;51.798;12.246;2022-12-18T04:25:57;81.25;;;31.23;;
3801;SDS011;1916;51.798;12.246;2022-12-18T04:28:22;92.03;;;33.27;;
3801;SDS011;1916;51.798;12.246;2022-12-18T04:30:24;79.55;;;30.65;;
3801;SDS011;1916;51.798;12.246;2022-12-18T04:32:27;80.47;;;29.48;;
3801;SDS011;1916;51.798;12.246;2022-12-18T04:34:29;96.85;;;33.55;;
3801;SDS011;1916;51.798;12.246;2022-12-18T04:36:32;82.93;;;32.70;;
3801;SDS011;1916;51.798;12.246;2022-12-18T04:38:34;78.38;;;31.13;;
3801;SDS011;1916;51.798;12.246;2022-12-18T04:40:41;74.07;;;32.40;;
3801;SDS011;1916;51.798;12.246;2022-12-18T04:42:52;97.25;;;33.90;;
3801;SDS011;1916;51.798;12.246;2022-12-18T04:44:54;71.67;;;29.27;;
3801;SDS011;1916;51.798;12.246;2022-12-18T04:46:56;72.70;;;28.73;;
3801;SDS011;1916;51.798;12.246;2022-12-18T04:48:58;76.87;;;30.80;;
3801;SDS011;1916;51.798;12.246;2022-12-18T04:51:00;73.72;;;27.88;;
3801;SDS011;1916;51.798;12.246;2022-12-18T04:53:02;69.18;;;27.30;;
3801;SDS011;1916;51.798;12.246;2022-12-18T04:55:04;71.60;;;28.63;;
3801;SDS011;1916;51.798;12.246;2022-12-18T04:57:07;68.50;;;27.23;;
3801;SDS011;1916;51.798;12.246;2022-12-18T04:59:09;63.45;;;26.55;;
3801;SDS011;1916;51.798;12.246;2022-12-18T05:01:11;58.40;;;23.35;;
3801;SDS011;1916;51.798;12.246;2022-12-18T05:03:15;64.60;;;27.47;;
3801;SDS011;1916;51.798;12.246;2022-12-18T05:05:17;65.72;;;24.30;;
3801;SDS011;1916;51.798;12.246;2022-12-18T05:07:19;67.63;;;26.73;;
3801;SDS011;1916;51.798;12.246;2022-12-18T05:09:21;59.55;;;25.38;;
3801;SDS011;1916;51.798;12.246;2022-12-18T05:11:24;63.13;;;25.93;;
3801;SDS011;1916;51.798;12.246;2022-12-18T05:13:26;55.17;;;24.47;;
3801;SDS011;1916;51.798;12.246;2022-12-18T05:15:29;67.30;;;27.00;;
3801;SDS011;1916;51.798;12.246;2022-12-18T05:17:32;58.88;;;26.58;;
3801;SDS011;1916;51.798;12.246;2022-12-18T05:19:34;58.53;;;24.97;;
3801;SDS011;1916;51.798;12.246;2022-12-18T05:21:36;63.60;;;24.90;;
3801;SDS011;1916;51.798;12.246;2022-12-18T05:23:38;52.47;;;21.97;;
3801;SDS011;1916;51.798;12.246;2022-12-18T05:25:41;60.90;;;27.53;;
3801;SDS011;1916;51.798;12.246;2022-12-18T05:27:43;62.67;;;25.95;;
3801;SDS011;1916;51.798;12.246;2022-12-18T05:29:45;61.15;;;24.10;;
3801;SDS011;1916;51.798;12.246;2022-12-18T05:31:47;61.80;;;26.83;;
3801;SDS011;1916;51.798;12.246;2022-12-18T05:33:49;65.88;;;26.92;;
3801;SDS011;1916;51.798;12.246;2022-12-18T05:35:51;61.58;;;26.05;;
3801;SDS011;1916;51.798;12.246;2022-12-18T05:37:57;55.27;;;23.43;;
3801;SDS011;1916;51.798;12.246;2022-12-18T05:39:59;59.80;;;24.60;;
3801;SDS011;1916;51.798;12.246;2022-12-18T05:42:01;58.13;;;24.03;;
3801;SDS011;1916;51.798;12.246;2022-12-18T05:44:03;57.53;;;24.63;;
3801;SDS011;1916;51.798;12.246;2022-12-18T05:46:07;53.23;;;24.57;;
3801;SDS011;1916;51.798;12.246;2022-12-18T05:48:12;44.63;;;20.52;;
3801;SDS011;1916;51.798;12.246;2022-12-18T05:50:13;52.25;;;23.98;;
3801;SDS011;1916;51.798;12.246;2022-12-18T05:52:16;56.30;;;22.73;;
3801;SDS011;1916;51.798;12.246;2022-12-18T05:54:18;49.30;;;23.27;;
3801;SDS011;1916;51.798;12.246;2022-12-18T05:56:20;54.13;;;22.92;;
3801;SDS011;1916;51.798;12.246;2022-12-18T05:58:23;52.37;;;22.33;;
3801;SDS011;1916;51.798;12.246;2022-12-18T06:00:26;57.08;;;21.90;;
3801;SDS011;1916;51.798;12.246;2022-12-18T06:02:28;48.58;;;22.42;;
3801;SDS011;1916;51.798;12.246;2022-12-18T06:04:30;56.47;;;22.70;;
3801;SDS011;1916;51.798;12.246;2022-12-18T06:06:33;58.40;;;24.25;;
3801;SDS011;1916;51.798;12.246;2022-12-18T06:08:35;47.72;;;20.90;;
3801;SDS011;1916;51.798;12.246;2022-12-18T06:10:49;56.50;;;22.83;;
3801;SDS011;1916;51.798;12.246;2022-12-18T06:12:53;55.90;;;23.10;;
3801;SDS011;1916;51.798;12.246;2022-12-18T06:14:55;52.83;;;22.00;;
3801;SDS011;1916;51.798;12.246;2022-12-18T06:16:57;67.28;;;25.75;;
3801;SDS011;1916;51.798;12.246;2022-12-18T06:18:59;49.38;;;20.98;;
3801;SDS011;1916;51.798;12.246;2022-12-18T06:21:02;55.07;;;20.20;;
3801;SDS011;1916;51.798;12.246;2022-12-18T06:23:04;50.00;;;20.93;;
3801;SDS011;1916;51.798;12.246;2022-12-18T06:25:06;52.63;;;22.88;;
3801;SDS011;1916;51.798;12.246;2022-12-18T06:27:08;55.33;;;23.92;;
3801;SDS011;1916;51.798;12.246;2022-12-18T06:29:10;61.60;;;22.50;;
3801;SDS011;1916;51.798;12.246;2022-12-18T06:31:12;49.97;;;20.63;;
3801;SDS011;1916;51.798;12.246;2022-12-18T06:33:15;52.22;;;20.73;;
3801;SDS011;1916;51.798;12.246;2022-12-18T06:35:17;57.30;;;22.60;;
3801;SDS011;1916;51.798;12.246;2022-12-18T06:37:22;45.28;;;19.88;;
3801;SDS011;1916;51.798;12.246;2022-12-18T06:39:27;56.35;;;24.05;;
3801;SDS011;1916;51.798;12.246;2022-12-18T06:41:29;47.03;;;21.00;;
3801;SDS011;1916;51.798;12.246;2022-12-18T06:43:32;51.90;;;20.93;;
3801;SDS011;1916;51.798;12.246;2022-12-18T06:45:34;42.85;;;19.65;;
3801;SDS011;1916;51.798;12.246;2022-12-18T06:47:36;66.50;;;22.30;;
3801;SDS011;1916;51.798;12.246;2022-12-18T06:49:38;54.72;;;22.75;;
3801;SDS011;1916;51.798;12.246;2022-12-18T06:51:40;53.60;;;21.10;;
3801;SDS011;1916;51.798;12.246;2022-12-18T06:53:42;49.00;;;21.83;;
3801;SDS011;1916;51.798;12.246;2022-12-18T06:55:44;44.93;;;19.93;;
3801;SDS011;1916;51.798;12.246;2022-12-18T06:57:46;37.15;;;17.73;;
3801;SDS011;1916;51.798;12.246;2022-12-18T06:59:48;54.15;;;20.70;;
3801;SDS011;1916;51.798;12.246;2022-12-18T07:01:50;51.45;;;22.15;;
3801;SDS011;1916;51.798;12.246;2022-12-18T07:03:53;49.63;;;23.10;;
3801;SDS011;1916;51.798;12.246;2022-12-18T07:05:56;50.75;;;20.67;;
3801;SDS011;1916;51.798;12.246;2022-12-18T07:07:58;47.67;;;20.43;;
3801;SDS011;1916;51.798;12.246;2022-12-18T07:10:00;52.72;;;21.23;;
3801;SDS011;1916;51.798;12.246;2022-12-18T07:12:02;40.35;;;18.80;;
3801;SDS011;1916;51.798;12.246;2022-12-18T07:14:07;39.75;;;17.63;;
3801;SDS011;1916;51.798;12.246;2022-12-18T07:16:10;51.50;;;21.63;;
3801;SDS011;1916;51.798;12.246;2022-12-18T07:18:23;46.20;;;20.25;;
3801;SDS011;1916;51.798;12.246;2022-12-18T07:20:25;66.20;;;20.07;;
3801;SDS011;1916;51.798;12.246;2022-12-18T07:22:27;56.10;;;20.13;;
3801;SDS011;1916;51.798;12.246;2022-12-18T07:24:29;59.80;;;24.70;;
3801;SDS011;1916;51.798;12.246;2022-12-18T07:26:31;54.30;;;22.23;;
3801;SDS011;1916;51.798;12.246;2022-12-18T07:28:33;68.13;;;24.33;;
3801;SDS011;1916;51.798;12.246;2022-12-18T07:30:36;58.58;;;22.63;;
3801;SDS011;1916;51.798;12.246;2022-12-18T07:32:39;63.67;;;21.97;;
3801;SDS011;1916;51.798;12.246;2022-12-18T07:34:41;58.53;;;23.90;;
3801;SDS011;1916;51.798;12.246;2022-12-18T07:36:43;62.88;;;22.65;;
3801;SDS011;1916;51.798;12.246;2022-12-18T07:38:48;56.63;;;21.67;;
3801;SDS011;1916;51.798;12.246;2022-12-18T07:40:51;54.13;;;21.17;;
3801;SDS011;1916;51.798;12.246;2022-12-18T07:42:53;60.73;;;22.23;;
3801;SDS011;1916;51.798;12.246;2022-12-18T07:44:55;63.80;;;22.63;;
3801;SDS011;1916;51.798;12.246;2022-12-18T07:46:57;53.05;;;24.17;;
3801;SDS011;1916;51.798;12.246;2022-12-18T07:48:59;46.77;;;22.50;;
3801;SDS011;1916;51.798;12.246;2022-12-18T07:51:02;54.57;;;21.17;;
3801;SDS011;1916;51.798;12.246;2022-12-18T07:53:05;45.92;;;20.38;;
3801;SDS011;1916;51.798;12.246;2022-12-18T07:55:07;65.00;;;21.42;;
3801;SDS011;1916;51.798;12.246;2022-12-18T07:57:10;57.42;;;21.05;;
3801;SDS011;1916;51.798;12.246;2022-12-18T07:59:32;57.63;;;21.67;;
3801;SDS011;1916;51.798;12.246;2022-12-18T08:01:34;51.17;;;20.45;;
3801;SDS011;1916;51.798;12.246;2022-12-18T08:03:36;59.50;;;24.17;;
3801;SDS011;1916;51.798;12.246;2022-12-18T08:05:43;55.58;;;23.23;;
3801;SDS011;1916;51.798;12.246;2022-12-18T08:07:45;52.58;;;22.42;;
3801;SDS011;1916;51.798;12.246;2022-12-18T08:09:47;50.97;;;19.87;;
3801;SDS011;1916;51.798;12.246;2022-12-18T08:11:49;57.20;;;22.73;;
3801;SDS011;1916;51.798;12.246;2022-12-18T08:13:52;70.10;;;24.80;;
3801;SDS011;1916;51.798;12.246;2022-12-18T08:16:04;52.63;;;22.70;;
3801;SDS011;1916;51.798;12.246;2022-12-18T08:18:08;58.70;;;24.30;;
3801;SDS011;1916;51.798;12.246;2022-12-18T08:20:15;51.70;;;22.80;;
3801;SDS011;1916;51.798;12.246;2022-12-18T08:22:17;58.90;;;24.30;;
3801;SDS011;1916;51.798;12.246;2022-12-18T08:24:19;52.40;;;24.67;;
3801;SDS011;1916;51.798;12.246;2022-12-18T08:26:21;46.93;;;23.07;;
3801;SDS011;1916;51.798;12.246;2022-12-18T08:28:24;50.57;;;23.47;;
3801;SDS011;1916;51.798;12.246;2022-12-18T08:30:26;50.30;;;21.90;;
3801;SDS011;1916;51.798;12.246;2022-12-18T08:32:28;44.97;;;21.77;;
3801;SDS011;1916;51.798;12.246;2022-12-18T08:34:31;49.67;;;22.50;;
3801;SDS011;1916;51.798;12.246;2022-12-18T08:36:33;55.03;;;24.13;;
3801;SDS011;1916;51.798;12.246;2022-12-18T08:38:35;48.87;;;21.20;;
3801;SDS011;1916;51.798;12.246;2022-12-18T08:40:37;41.77;;;22.23;;
3801;SDS011;1916;51.798;12.246;2022-12-18T08:42:39;44.00;;;22.20;;
3801;SDS011;1916;51.798;12.246;2022-12-18T08:45:05;46.87;;;20.83;;
3801;SDS011;1916;51.798;12.246;2022-12-18T08:47:07;48.43;;;21.77;;
3801;SDS011;1916;51.798;12.246;2022-12-18T08:49:10;40.03;;;20.70;;
3801;SDS011;1916;51.798;12.246;2022-12-18T08:51:13;47.90;;;22.57;;
3801;SDS011;1916;51.798;12.246;2022-12-18T08:53:17;43.80;;;20.40;;
3801;SDS011;1916;51.798;12.246;2022-12-18T08:55:19;43.73;;;20.90;;
3801;SDS011;1916;51.798;12.246;2022-12-18T08:57:23;43.33;;;23.00;;
3801;SDS011;1916;51.798;12.246;2022-12-18T08:59:25;41.60;;;21.20;;
3801;SDS011;1916;51.798;12.246;2022-12-18T09:01:27;44.70;;;22.37;;
3801;SDS011;1916;51.798;12.246;2022-12-18T09:03:30;44.07;;;22.90;;
3801;SDS011;1916;51.798;12.246;2022-12-18T09:05:32;43.87;;;20.80;;
3801;SDS011;1916;51.798;12.246;2022-12-18T09:07:34;46.67;;;21.73;;
3801;SDS011;1916;51.798;12.246;2022-12-18T09:09:36;42.77;;;22.40;;
3801;SDS011;1916;51.798;12.246;2022-12-18T09:11:38;45.73;;;21.80;;
3801;SDS011;1916;51.798;12.246;2022-12-18T09:13:41;41.20;;;20.40;;
3801;SDS011;1916;51.798;12.246;2022-12-18T09:15:47;36.20;;;20.83;;
3801;SDS011;1916;51.798;12.246;2022-12-18T09:17:51;40.20;;;20.60;;
3801;SDS011;1916;51.798;12.246;2022-12-18T09:19:54;42.30;;;23.50;;
3801;SDS011;1916;51.798;12.246;2022-12-18T09:21:56;42.00;;;21.43;;
3801;SDS011;1916;51.798;12.246;2022-12-18T09:23:58;37.80;;;21.17;;
3801;SDS011;1916;51.798;12.246;2022-12-18T09:26:00;45.67;;;22.40;;
3801;SDS011;1916;51.798;12.246;2022-12-18T09:28:04;38.87;;;19.80;;
3801;SDS011;1916;51.798;12.246;2022-12-18T09:30:17;41.33;;;22.10;;
3801;SDS011;1916;51.798;12.246;2022-12-18T09:32:19;36.90;;;19.10;;
3801;SDS011;1916;51.798;12.246;2022-12-18T09:34:23;35.93;;;18.77;;
3801;SDS011;1916;51.798;12.246;2022-12-18T09:36:25;37.17;;;20.40;;
3801;SDS011;1916;51.798;12.246;2022-12-18T09:38:27;40.30;;;20.17;;
3801;SDS011;1916;51.798;12.246;2022-12-18T09:40:32;38.17;;;20.43;;
3801;SDS011;1916;51.798;12.246;2022-12-18T09:42:37;36.13;;;18.47;;
3801;SDS011;1916;51.798;12.246;2022-12-18T09:44:39;38.40;;;20.70;;
3801;SDS011;1916;51.798;12.246;2022-12-18T09:46:51;38.53;;;21.70;;
3801;SDS011;1916;51.798;12.246;2022-12-18T09:49:00;36.20;;;22.33;;
3801;SDS011;1916;51.798;12.246;2022-12-18T09:51:27;37.40;;;20.40;;
3801;SDS011;1916;51.798;12.246;2022-12-18T09:53:32;36.43;;;20.50;;
3801;SDS011;1916;51.798;12.246;2022-12-18T09:55:37;39.40;;;19.77;;
3801;SDS011;1916;51.798;12.246;2022-12-18T09:57:45;39.00;;;20.63;;
3801;SDS011;1916;51.798;12.246;2022-12-18T09:59:59;40.03;;;21.20;;
3801;SDS011;1916;51.798;12.246;2022-12-18T10:02:16;33.87;;;19.20;;
3801;SDS011;1916;51.798;12.246;2022-12-18T10:04:20;37.10;;;19.43;;
3801;SDS011;1916;51.798;12.246;2022-12-18T10:08:58;38.90;;;21.93;;
3801;SDS011;1916;51.798;12.246;2022-12-18T10:11:14;34.60;;;20.20;;
3801;SDS011;1916;51.798;12.246;2022-12-18T10:15:28;36.87;;;19.63;;
3801;SDS011;1916;51.798;12.246;2022-12-18T10:17:54;35.13;;;19.90;;
3801;SDS011;1916;51.798;12.246;2022-12-18T10:26:35;32.33;;;19.00;;
3801;SDS011;1916;51.798;12.246;2022-12-18T10:28:38;33.93;;;19.77;;
3801;SDS011;1916;51.798;12.246;2022-12-18T10:30:42;34.60;;;19.83;;
3801;SDS011;1916;51.798;12.246;2022-12-18T10:32:44;34.50;;;19.33;;
3801;SDS011;1916;51.798;12.246;2022-12-18T10:34:47;41.43;;;22.93;;
3801;SDS011;1916;51.798;12.246;2022-12-18T10:36:50;37.83;;;21.87;;
3801;SDS011;1916;51.798;12.246;2022-12-18T10:38:52;37.70;;;20.77;;
3801;SDS011;1916;51.798;12.246;2022-12-18T10:43:04;39.90;;;18.93;;
3801;SDS011;1916;51.798;12.246;2022-12-18T10:47:14;38.20;;;21.20;;
3801;SDS011;1916;51.798;12.246;2022-12-18T10:49:24;32.40;;;20.13;;
3801;SDS011;1916;51.798;12.246;2022-12-18T10:51:35;35.57;;;18.83;;
3801;SDS011;1916;51.798;12.246;2022-12-18T10:53:39;30.47;;;17.73;;
3801;SDS011;1916;51.798;12.246;2022-12-18T10:55:43;37.30;;;20.83;;
3801;SDS011;1916;51.798;12.246;2022-12-18T10:57:46;33.27;;;19.70;;
3801;SDS011;1916;51.798;12.246;2022-12-18T10:59:54;31.93;;;17.93;;
3801;SDS011;1916;51.798;12.246;2022-12-18T11:01:58;33.97;;;19.40;;
3801;SDS011;1916;51.798;12.246;2022-12-18T11:04:02;29.77;;;17.90;;
3801;SDS011;1916;51.798;12.246;2022-12-18T11:06:14;30.80;;;18.63;;
3801;SDS011;1916;51.798;12.246;2022-12-18T11:08:20;32.97;;;19.60;;
3801;SDS011;1916;51.798;12.246;2022-12-18T11:10:31;37.50;;;20.80;;
3801;SDS011;1916;51.798;12.246;2022-12-18T11:12:34;33.30;;;20.87;;
3801;SDS011;1916;51.798;12.246;2022-12-18T11:14:46;41.27;;;23.53;;
3801;SDS011;1916;51.798;12.246;2022-12-18T11:16:49;44.43;;;22.07;;
3801;SDS011;1916;51.798;12.246;2022-12-18T11:21:24;36.90;;;22.30;;
3801;SDS011;1916;51.798;12.246;2022-12-18T11:23:27;32.27;;;19.10;;
3801;SDS011;1916;51.798;12.246;2022-12-18T11:25:30;34.93;;;20.70;;
3801;SDS011;1916;51.798;12.246;2022-12-18T11:27:33;34.30;;;18.33;;
3801;SDS011;1916;51.798;12.246;2022-12-18T11:29:36;33.13;;;18.37;;
3801;SDS011;1916;51.798;12.246;2022-12-18T11:31:47;39.30;;;20.47;;
3801;SDS011;1916;51.798;12.246;2022-12-18T11:36:33;34.60;;;18.60;;
3801;SDS011;1916;51.798;12.246;2022-12-18T11:38:43;32.53;;;20.03;;
3801;SDS011;1916;51.798;12.246;2022-12-18T11:40:47;31.33;;;18.23;;
3801;SDS011;1916;51.798;12.246;2022-12-18T11:43:08;39.93;;;20.77;;
3801;SDS011;1916;51.798;12.246;2022-12-18T11:47:19;30.77;;;18.80;;
3801;SDS011;1916;51.798;12.246;2022-12-18T11:49:32;36.50;;;19.00;;
3801;SDS011;1916;51.798;12.246;2022-12-18T11:52:00;34.87;;;18.50;;
3801;SDS011;1916;51.798;12.246;2022-12-18T11:54:20;32.77;;;18.37;;
3801;SDS011;1916;51.798;12.246;2022-12-18T11:56:43;36.53;;;19.20;;
3801;SDS011;1916;51.798;12.246;2022-12-18T11:58:50;36.53;;;22.63;;
3801;SDS011;1916;51.798;12.246;2022-12-18T12:03:39;38.80;;;21.10;;
3801;SDS011;1916;51.798;12.246;2022-12-18T12:20:29;38.60;;;19.27;;
3801;SDS011;1916;51.798;12.246;2022-12-18T12:38:28;32.57;;;17.00;;
3801;SDS011;1916;51.798;12.246;2022-12-18T12:40:36;34.13;;;17.90;;
3801;SDS011;1916;51.798;12.246;2022-12-18T12:42:58;37.70;;;19.20;;
3801;SDS011;1916;51.798;12.246;2022-12-18T12:45:19;39.43;;;18.10;;
3801;SDS011;1916;51.798;12.246;2022-12-18T12:47:32;32.47;;;18.10;;
3801;SDS011;1916;51.798;12.246;2022-12-18T12:49:38;35.83;;;17.80;;
3801;SDS011;1916;51.798;12.246;2022-12-18T12:51:43;40.57;;;22.43;;
3801;SDS011;1916;51.798;12.246;2022-12-18T12:53:48;38.50;;;18.80;;
3801;SDS011;1916;51.798;12.246;2022-12-18T12:55:51;37.33;;;20.10;;
3801;SDS011;1916;51.798;12.246;2022-12-18T13:00:18;42.83;;;18.60;;
3801;SDS011;1916;51.798;12.246;2022-12-18T13:02:22;45.13;;;19.47;;
3801;SDS011;1916;51.798;12.246;2022-12-18T13:04:50;43.10;;;19.43;;
3801;SDS011;1916;51.798;12.246;2022-12-18T13:07:00;41.67;;;20.37;;
3801;SDS011;1916;51.798;12.246;2022-12-18T13:09:07;40.60;;;19.93;;
3801;SDS011;1916;51.798;12.246;2022-12-18T13:11:12;39.70;;;17.93;;
3801;SDS011;1916;51.798;12.246;2022-12-18T13:14:01;41.03;;;19.77;;
3801;SDS011;1916;51.798;12.246;2022-12-18T13:16:06;42.60;;;18.50;;
3801;SDS011;1916;51.798;12.246;2022-12-18T13:20:11;47.03;;;18.80;;
3801;SDS011;1916;51.798;12.246;2022-12-18T13:22:31;44.80;;;19.07;;
3801;SDS011;1916;51.798;12.246;2022-12-18T13:24:39;39.13;;;17.17;;
3801;SDS011;1916;51.798;12.246;2022-12-18T13:26:41;46.47;;;18.53;;
3801;SDS011;1916;51.798;12.246;2022-12-18T13:30:50;48.97;;;20.93;;
3801;SDS011;1916;51.798;12.246;2022-12-18T13:39:33;45.50;;;19.87;;
3801;SDS011;1916;51.798;12.246;2022-12-18T13:41:36;45.80;;;20.20;;
3801;SDS011;1916;51.798;12.246;2022-12-18T13:43:45;43.20;;;20.43;;
3801;SDS011;1916;51.798;12.246;2022-12-18T13:48:22;42.70;;;21.03;;
3801;SDS011;1916;51.798;12.246;2022-12-18T13:50:25;38.27;;;18.27;;
3801;SDS011;1916;51.798;12.246;2022-12-18T13:52:37;37.77;;;19.03;;
3801;SDS011;1916;51.798;12.246;2022-12-18T13:54:41;38.10;;;20.53;;
3801;SDS011;1916;51.798;12.246;2022-12-18T13:56:44;44.00;;;21.33;;
3801;SDS011;1916;51.798;12.246;2022-12-18T14:01:23;50.50;;;24.83;;